Time;durP1;ratioP1;P1;durP2;ratioP2;P2;SDS_P1;SDS_P2;PMS_P1;PMS_P2;Temp;Humidity;BMP_temperature;BMP_pressure;BME280_temperature;BME280_humidity;BME280_pressure;Samples;Min_cycle;Max_cycle;Signal;HPM_P1;HPM_P2
2021/01/26 00:01:08;;;;;;;32.05;21.10;;;;;;;-0.39;94.45;98605.78;4936317;29;20053;-75
2021/01/26 00:03:34;;;;;;;31.88;20.27;;;;;;;-0.37;94.26;98604.16;4936617;29;20032;-75
2021/01/26 00:05:59;;;;;;;31.80;19.65;;;;;;;-0.33;94.22;98610.19;4936336;29;20472;-75
2021/01/26 00:08:24;;;;;;;28.45;20.15;;;;;;;-0.40;93.95;98613.38;4936577;29;20031;-75
2021/01/26 00:10:50;;;;;;;30.20;20.10;;;;;;;-0.39;93.84;98618.50;4936221;29;20023;-75
2021/01/26 00:13:16;;;;;;;30.63;21.05;;;;;;;-0.39;93.94;98615.09;4936278;29;20035;-75
2021/01/26 00:15:41;;;;;;;34.05;20.05;;;;;;;-0.42;94.20;98615.91;4936363;29;20038;-74
2021/01/26 00:18:07;;;;;;;31.10;20.23;;;;;;;-0.23;95.08;98616.34;4936318;29;20039;-69
2021/01/26 00:20:34;;;;;;;28.35;19.27;;;;;;;-0.35;95.03;98617.75;4935949;29;20055;-69
2021/01/26 00:22:59;;;;;;;30.58;20.08;;;;;;;-0.29;94.30;98623.00;4936331;29;20042;-74
2021/01/26 00:25:31;;;;;;;36.28;20.40;;;;;;;-0.18;95.19;98617.28;4936093;29;20031;-74
2021/01/26 00:27:57;;;;;;;28.77;19.73;;;;;;;-0.26;93.78;98623.06;4936207;29;20031;-74
2021/01/26 00:30:25;;;;;;;27.63;19.77;;;;;;;-0.20;95.55;98621.47;4936220;28;20031;-75
2021/01/26 00:32:51;;;;;;;30.23;19.00;;;;;;;-0.18;94.12;98612.19;4936075;29;20065;-75
2021/01/26 00:35:19;;;;;;;27.88;18.27;;;;;;;-0.23;92.46;98623.97;4935950;29;20066;-75
2021/01/26 00:37:45;;;;;;;31.13;20.00;;;;;;;-0.30;93.16;98621.25;4935913;29;20050;-75
2021/01/26 00:40:11;;;;;;;27.55;18.70;;;;;;;-0.34;93.50;98629.69;4935640;29;20462;-76
2021/01/26 00:42:36;;;;;;;31.67;21.02;;;;;;;-0.37;94.25;98634.69;4935700;29;20106;-70
2021/01/26 00:45:04;;;;;;;31.05;20.92;;;;;;;-0.50;95.36;98632.69;4935831;29;20497;-70
2021/01/26 00:47:29;;;;;;;33.20;20.77;;;;;;;-0.37;95.83;98629.59;4935681;28;20027;-75
2021/01/26 00:49:55;;;;;;;31.45;21.42;;;;;;;-0.46;94.52;98634.47;4935678;29;20437;-76
2021/01/26 00:52:20;;;;;;;28.25;19.35;;;;;;;-0.51;94.59;98628.41;4935723;29;20024;-75
2021/01/26 00:54:46;;;;;;;36.78;22.25;;;;;;;-0.51;94.86;98630.97;4935205;29;20028;-70
2021/01/26 00:57:11;;;;;;;32.67;20.88;;;;;;;-0.52;94.16;98634.34;4934436;29;20382;-70
2021/01/26 00:59:38;;;;;;;36.15;20.40;;;;;;;-0.51;94.60;98630.97;4935726;29;20397;-69
2021/01/26 07:01:01;;;;;;;10.65;5.38;;;;;;;0.50;86.50;98821.75;5742594;23;20457;-74
2021/01/26 07:03:48;;;;;;;8.00;5.43;;;;;;;0.47;85.74;98826.75;4937760;29;20091;-74
2021/01/26 07:06:38;;;;;;;15.27;5.70;;;;;;;0.35;86.17;98826.50;4947402;29;20432;-74
2021/01/26 07:09:35;;;;;;;9.77;5.63;;;;;;;0.37;86.69;98829.94;4957110;28;20392;-74
2021/01/26 07:12:00;;;;;;;12.25;5.65;;;;;;;0.23;87.06;98830.47;4954789;29;20043;-74
2021/01/26 07:14:47;;;;;;;9.52;5.63;;;;;;;0.12;87.69;98829.34;4972025;23;20514;-70
2021/01/26 07:17:28;;;;;;;11.30;5.45;;;;;;;0.15;88.00;98824.34;4937592;29;20050;-70
2021/01/26 07:20:28;;;;;;;17.15;5.95;;;;;;;0.34;86.86;98827.28;4937419;29;20031;-70
2021/01/26 07:22:58;;;;;;;;;;;;;;;0.40;87.02;98835.09;4936058;29;20048;-70
2021/01/26 07:25:46;;;;;;;25.65;7.00;;;;;;;0.40;87.40;98835.09;4921895;29;19911;-70
2021/01/26 07:28:37;;;;;;;22.70;10.27;;;;;;;0.36;87.47;98838.41;4916974;29;20119;-70
2021/01/26 07:31:14;;;;;;;12.52;7.35;;;;;;;0.36;87.16;98846.91;4918027;29;20523;-70
2021/01/26 07:34:03;;;;;;;12.50;7.68;;;;;;;0.48;86.75;98853.97;4918137;29;20036;-70
2021/01/26 07:36:37;;;;;;;16.02;8.60;;;;;;;0.29;87.36;98867.09;4918098;29;20032;-70
2021/01/26 07:39:18;;;;;;;17.35;8.85;;;;;;;0.36;87.13;98863.88;4917936;29;20107;-70
2021/01/26 07:41:52;;;;;;;16.52;6.60;;;;;;;0.36;87.20;98863.88;4917705;29;20024;-70
2021/01/26 07:44:25;;;;;;;15.93;8.15;;;;;;;0.39;86.81;98874.16;4917893;29;20031;-70
2021/01/26 07:47:11;;;;;;;16.90;8.30;;;;;;;0.39;87.24;98879.25;4917946;29;20028;-70
2021/01/26 07:49:51;;;;;;;13.73;6.40;;;;;;;0.50;87.25;98878.69;4916572;29;20404;-69
2021/01/26 07:52:18;;;;;;;11.40;5.00;;;;;;;0.52;86.89;98881.25;4917725;29;20047;-69
2021/01/26 07:55:02;;;;;;;13.70;4.78;;;;;;;0.50;85.90;98885.47;4919146;29;20481;-69
2021/01/26 07:57:41;;;;;;;8.82;5.28;;;;;;;0.40;86.04;98883.53;4917816;29;20036;-69
2021/01/26 08:00:11;;;;;;;7.10;4.20;;;;;;;0.49;86.66;98891.41;4917344;29;20035;-69
2021/01/26 08:02:39;;;;;;;9.43;4.93;;;;;;;0.57;86.27;98896.66;4932099;29;20110;-69
2021/01/26 08:05:17;;;;;;;7.10;4.47;;;;;;;0.55;87.04;98896.63;4920514;29;20031;-69
2021/01/26 08:07:44;;;;;;;12.05;4.60;;;;;;;0.69;85.78;98891.84;4928528;29;20549;-69
2021/01/26 08:10:22;;;;;;;6.72;4.38;;;;;;;0.74;86.44;98893.69;4928589;29;20027;-68
2021/01/26 08:12:49;;;;;;;12.73;4.80;;;;;;;0.67;86.32;98891.81;4920364;29;20124;-69
2021/01/26 08:15:29;;;;;;;8.98;4.38;;;;;;;0.82;85.36;98892.97;4931781;29;20035;-69
2021/01/26 08:17:55;;;;;;;9.55;4.80;;;;;;;0.71;86.49;98893.59;4926791;29;20046;-69
2021/01/26 08:20:21;;;;;;;8.73;4.82;;;;;;;0.81;85.84;98901.47;4923012;29;20028;-69
2021/01/26 08:22:54;;;;;;;9.45;4.20;;;;;;;0.88;84.70;98903.34;4932568;29;20042;-69
2021/01/26 08:25:40;;;;;;;8.07;5.10;;;;;;;0.79;85.67;98905.69;4915650;29;20020;-69
2021/01/26 08:28:39;;;;;;;14.50;5.13;;;;;;;0.75;85.81;98910.69;4927973;29;20034;-69
2021/01/26 08:31:23;;;;;;;9.88;4.82;;;;;;;0.84;86.03;98916.84;4919957;29;20027;-69
2021/01/26 08:33:55;;;;;;;12.50;4.13;;;;;;;0.86;85.32;98922.81;4927125;29;20028;-69
2021/01/26 08:36:28;;;;;;;11.48;4.40;;;;;;;0.77;85.00;98918.38;4929850;29;20027;-69
2021/01/26 08:39:00;;;;;;;6.07;3.80;;;;;;;0.77;85.47;98931.13;4919987;29;20079;-69
2021/01/26 08:41:52;;;;;;;7.88;4.35;;;;;;;0.94;84.23;98936.63;4929928;29;20027;-69
2021/01/26 08:44:20;;;;;;;13.55;4.25;;;;;;;0.89;84.42;98939.06;4927922;29;20061;-69
2021/01/26 08:46:47;;;;;;;9.18;4.10;;;;;;;0.96;84.61;98940.06;4919662;29;20481;-69
2021/01/26 08:49:24;;;;;;;7.80;4.15;;;;;;;0.98;83.91;98948.63;4931644;29;20647;-69
2021/01/26 08:51:50;;;;;;;9.02;4.22;;;;;;;1.03;84.10;98941.94;4925219;29;20028;-68
2021/01/26 08:54:41;;;;;;;12.32;4.13;;;;;;;0.99;83.47;98941.00;4922939;29;20116;-69
2021/01/26 08:57:28;;;;;;;12.13;4.20;;;;;;;1.07;82.31;98945.44;4932298;29;20497;-68
2021/01/26 08:59:54;;;;;;;9.98;4.10;;;;;;;1.05;81.78;98945.38;4925686;29;20473;-68
2021/01/26 09:02:34;;;;;;;11.40;3.50;;;;;;;1.14;81.55;98937.94;4922551;29;20172;-71
2021/01/26 09:05:01;;;;;;;10.48;4.07;;;;;;;1.17;81.72;98940.56;4931813;29;20064;-69
2021/01/26 09:07:56;;;;;;;25.27;7.03;;;;;;;1.13;81.04;98950.66;4922218;29;20055;-68
2021/01/26 09:10:30;;;;;;;8.43;3.90;;;;;;;1.05;80.78;98955.59;4921559;29;20119;-69
2021/01/26 09:13:04;;;;;;;11.60;3.95;;;;;;;1.06;80.60;98957.28;4932450;29;20031;-69
2021/01/26 09:15:30;;;;;;;8.70;3.97;;;;;;;1.13;80.41;98959.19;4920552;29;20024;-70
2021/01/26 09:17:58;;;;;;;5.63;4.03;;;;;;;1.11;80.34;98950.59;4925589;29;20492;-70
2021/01/26 09:20:28;;;;;;;7.30;4.03;;;;;;;1.25;80.79;98951.78;4929272;29;20384;-70
2021/01/26 09:23:02;;;;;;;8.93;3.75;;;;;;;1.23;79.38;98953.44;4919313;29;20031;-69
2021/01/26 09:25:36;;;;;;;8.68;3.75;;;;;;;1.24;79.24;98957.72;4928907;29;20040;-69
2021/01/26 09:28:04;;;;;;;10.57;4.25;;;;;;;1.37;79.61;98958.00;4926425;29;20453;-74
2021/01/26 09:30:30;;;;;;;6.72;3.83;;;;;;;1.42;78.61;98951.28;4920700;29;20393;-74
2021/01/26 09:32:55;;;;;;;12.77;4.55;;;;;;;1.50;78.26;98970.19;4931641;29;20031;-72
2021/01/26 09:35:29;;;;;;;8.05;3.60;;;;;;;1.58;77.08;98967.78;4920887;29;20023;-74
2021/01/26 09:38:18;;;;;;;8.88;3.70;;;;;;;1.70;78.33;98958.69;4925453;29;20111;-74
2021/01/26 09:40:47;;;;;;;12.05;4.47;;;;;;;1.63;76.60;98967.03;4931146;29;20489;-74
2021/01/26 09:43:24;;;;;;;9.63;3.83;;;;;;;1.64;76.61;98968.75;4920000;29;20384;-74
2021/01/26 09:46:05;;;;;;;4.22;3.17;;;;;;;1.74;76.41;98975.81;4925544;29;20087;-73
2021/01/26 09:48:45;;;;;;;4.53;3.33;;;;;;;1.90;76.98;98981.22;4929974;29;20505;-73
2021/01/26 09:51:12;;;;;;;11.38;3.40;;;;;;;1.86;76.11;98981.97;4904301;29;20028;-73
2021/01/26 09:53:39;;;;;;;5.20;3.17;;;;;;;1.91;76.59;98978.69;4922313;29;20081;-73
2021/01/26 09:56:06;;;;;;;6.80;3.42;;;;;;;1.89;75.76;98985.47;4925560;29;20130;-74
2021/01/26 09:58:32;;;;;;;5.43;3.28;;;;;;;1.96;75.49;98991.56;4918982;29;20055;-69
2021/01/26 10:00:59;;;;;;;5.85;2.90;;;;;;;1.80;75.27;98990.38;4930989;29;20114;-69
2021/01/26 10:03:26;;;;;;;8.15;3.03;;;;;;;1.86;75.86;98994.75;4921087;29;20028;-68
2021/01/26 10:05:56;;;;;;;7.38;3.60;;;;;;;1.78;75.91;99003.09;4908570;29;20032;-70
2021/01/26 10:08:23;;;;;;;6.15;3.15;;;;;;;1.58;75.51;98994.19;4928648;29;20126;-70
2021/01/26 10:10:49;;;;;;;10.98;3.28;;;;;;;1.72;76.39;99000.44;4933245;28;20581;-74
2021/01/26 10:13:30;;;;;;;7.72;3.55;;;;;;;1.73;76.99;99007.25;4930196;29;20116;-74
2021/01/26 10:15:56;;;;;;;3.92;2.60;;;;;;;1.70;75.69;99006.34;4925125;29;20126;-69
2021/01/26 10:18:30;;;;;;;9.52;3.05;;;;;;;1.72;75.90;99010.66;4920156;29;20032;-73
2021/01/26 10:20:59;;;;;;;3.72;2.63;;;;;;;1.80;75.57;99001.47;4931085;29;20377;-71
2021/01/26 10:23:39;;;;;;;6.15;3.28;;;;;;;1.99;76.62;99006.94;4920986;29;20028;-74
2021/01/26 10:26:21;;;;;;;8.40;3.20;;;;;;;2.20;75.94;99002.25;4938348;29;20618;-71
2021/01/26 10:28:54;;;;;;;10.40;3.53;;;;;;;2.21;74.87;99013.31;4949392;29;20078;-69
2021/01/26 10:31:20;;;;;;;5.40;3.25;;;;;;;2.27;75.32;99014.31;4924239;29;20055;-69
2021/01/26 10:33:46;;;;;;;5.32;2.63;;;;;;;2.42;73.66;99005.19;4944439;28;20028;-74
2021/01/26 10:36:33;;;;;;;6.05;3.22;;;;;;;2.45;73.95;99011.22;4929261;29;20032;-71
2021/01/26 10:39:03;;;;;;;4.65;2.50;;;;;;;2.66;73.33;99008.19;4920648;29;20039;-74
2021/01/26 10:41:36;;;;;;;5.05;2.97;;;;;;;2.74;72.03;99014.28;4931847;29;20058;-73
2021/01/26 10:44:07;;;;;;;15.48;4.97;;;;;;;2.76;71.61;99012.63;4929175;29;20031;-73
2021/01/26 10:46:39;;;;;;;6.78;3.90;;;;;;;2.85;71.12;99014.47;4922244;29;20097;-69
2021/01/26 10:49:37;;;;;;;7.00;2.67;;;;;;;2.83;69.85;99014.44;4934487;29;20434;-70
2021/01/26 10:52:06;;;;;;;3.53;2.05;;;;;;;2.48;70.33;99018.09;4917387;29;20119;-73
2021/01/26 10:54:32;;;;;;;7.17;3.17;;;;;;;2.30;72.01;99019.47;4923371;29;20032;-69
2021/01/26 10:56:57;;;;;;;7.00;3.00;;;;;;;2.23;72.35;99027.88;4934296;29;20031;-74
2021/01/26 10:59:23;;;;;;;2.70;2.20;;;;;;;2.21;72.98;99033.78;4923800;29;20020;-74
2021/01/26 11:01:49;;;;;;;6.55;3.50;;;;;;;2.17;72.05;99032.84;4928758;29;20082;-73
2021/01/26 11:04:16;;;;;;;7.53;3.22;;;;;;;2.31;71.01;99026.31;4925406;29;20032;-70
2021/01/26 11:06:41;;;;;;;7.95;2.50;;;;;;;2.27;71.12;99037.31;4933919;29;20109;-70
2021/01/26 11:09:08;;;;;;;8.32;2.83;;;;;;;2.19;72.19;99038.00;4920702;29;20019;-69
2021/01/26 11:11:35;;;;;;;8.25;2.47;;;;;;;2.12;71.91;99033.59;4930475;29;20378;-70
2021/01/26 11:14:01;;;;;;;4.90;2.33;;;;;;;2.23;71.85;99040.66;4928341;29;20035;-69
2021/01/26 11:16:27;;;;;;;4.57;2.13;;;;;;;2.19;72.84;99041.41;4923698;29;20024;-69
2021/01/26 11:18:54;;;;;;;7.63;2.95;;;;;;;2.25;72.37;99031.31;4932587;29;20393;-75
2021/01/26 11:21:21;;;;;;;5.10;2.58;;;;;;;2.23;71.32;99032.13;4923135;29;20031;-69
2021/01/26 11:23:47;;;;;;;4.05;2.55;;;;;;;2.28;72.52;99036.50;4928810;29;20106;-70
2021/01/26 11:26:14;;;;;;;7.10;3.05;;;;;;;2.17;71.90;99032.84;4929936;29;20070;-74
2021/01/26 11:28:40;;;;;;;5.47;2.42;;;;;;;2.19;72.14;99027.78;4921632;29;20043;-74
2021/01/26 11:31:05;;;;;;;6.95;2.40;;;;;;;2.16;71.94;99030.25;4933835;29;20015;-74
2021/01/26 11:33:31;;;;;;;12.27;5.25;;;;;;;2.15;71.31;99034.53;4924439;29;20027;-75
2021/01/26 11:35:58;;;;;;;7.82;2.88;;;;;;;2.23;71.58;99027.00;4927176;29;20435;-75
2021/01/26 11:38:24;;;;;;;4.03;2.25;;;;;;;2.21;71.48;99024.41;4930686;29;20036;-74
2021/01/26 11:40:50;;;;;;;5.15;2.53;;;;;;;2.18;72.88;99036.28;4920838;29;20036;-74
2021/01/26 11:43:17;;;;;;;4.07;2.33;;;;;;;2.25;72.07;99041.53;4932497;29;20553;-74
2021/01/26 11:45:44;;;;;;;5.68;2.60;;;;;;;2.34;70.87;99040.84;4924427;29;20019;-74
2021/01/26 11:48:10;;;;;;;5.13;2.17;;;;;;;2.19;69.64;99048.22;4924209;29;20038;-74
2021/01/26 11:50:36;;;;;;;6.05;2.88;;;;;;;2.43;69.99;99055.50;4932362;29;20050;-75
2021/01/26 11:53:07;;;;;;;5.90;2.47;;;;;;;2.53;68.93;99052.28;4912432;29;20032;-72
2021/01/26 11:55:33;;;;;;;6.70;2.40;;;;;;;2.34;69.46;99060.44;4903431;29;20032;-72
2021/01/26 11:57:59;;;;;;;8.63;2.45;;;;;;;2.21;69.99;99060.19;4906687;29;20028;-72
2021/01/26 12:00:27;;;;;;;4.38;1.88;;;;;;;2.37;69.36;99055.38;4908966;29;20387;-71
2021/01/26 12:02:53;;;;;;;9.13;2.33;;;;;;;2.33;70.04;99053.63;4909057;29;20035;-71
2021/01/26 12:05:24;;;;;;;9.15;2.50;;;;;;;2.34;69.37;99047.66;4904801;29;20024;-71
2021/01/26 12:07:49;;;;;;;8.13;2.33;;;;;;;2.38;69.00;99046.88;4905875;29;20043;-69
2021/01/26 12:10:16;;;;;;;8.18;2.22;;;;;;;2.39;69.01;99043.50;4908643;29;20051;-68
2021/01/26 12:12:41;;;;;;;7.75;2.63;;;;;;;2.58;67.16;99032.78;4906818;29;20040;-70
2021/01/26 12:15:10;;;;;;;10.57;2.67;;;;;;;2.70;67.84;99034.66;4904764;29;20036;-69
2021/01/26 12:17:35;;;;;;;5.03;2.45;;;;;;;2.87;66.06;99033.28;4908713;29;20114;-69
2021/01/26 12:20:01;;;;;;;13.52;3.03;;;;;;;2.95;68.66;99046.19;4908633;29;20438;-69
2021/01/26 12:22:26;;;;;;;6.22;2.38;;;;;;;3.12;66.50;99039.66;4905598;29;20502;-69
2021/01/26 12:24:52;;;;;;;8.88;3.15;;;;;;;3.14;67.26;99032.84;4905164;29;20086;-70
2021/01/26 12:27:17;;;;;;;10.88;3.40;;;;;;;2.84;66.96;99034.06;4908360;29;20390;-69
2021/01/26 12:29:42;;;;;;;7.05;3.00;;;;;;;2.86;67.42;99029.00;4907683;29;20052;-70
2021/01/26 12:32:10;;;;;;;9.73;3.05;;;;;;;2.73;67.78;99034.72;4896304;29;20516;-71
2021/01/26 12:34:36;;;;;;;6.05;2.75;;;;;;;2.65;67.87;99042.25;4905865;29;20845;-70
2021/01/26 12:37:01;;;;;;;9.18;3.30;;;;;;;2.56;69.12;99037.88;4903473;29;20116;-70
2021/01/26 12:39:27;;;;;;;7.68;3.05;;;;;;;2.70;69.28;99038.09;4906347;29;20386;-71
2021/01/26 12:41:52;;;;;;;5.55;3.33;;;;;;;2.75;68.02;99033.91;4905892;29;20032;-70
2021/01/26 12:44:18;;;;;;;5.57;2.85;;;;;;;2.60;66.54;99030.22;4907107;29;20549;-70
2021/01/26 12:46:44;;;;;;;7.47;3.00;;;;;;;2.74;67.35;99028.78;4903299;29;20502;-71
2021/01/26 12:49:11;;;;;;;12.43;3.20;;;;;;;2.60;67.22;99020.84;4906578;29;20047;-73
2021/01/26 12:51:36;;;;;;;8.98;3.15;;;;;;;2.57;67.77;99031.91;4907900;29;20036;-72
2021/01/26 12:54:02;;;;;;;14.68;3.45;;;;;;;2.63;66.52;99028.59;4902921;29;20091;-72
2021/01/26 12:56:27;;;;;;;6.57;3.20;;;;;;;2.56;67.19;99026.75;4903536;29;20033;-73
2021/01/26 12:58:52;;;;;;;7.57;3.25;;;;;;;2.71;67.97;99031.31;4907407;29;20126;-74
2021/01/26 13:01:18;;;;;;;6.97;3.72;;;;;;;2.82;67.70;99020.41;4907618;29;20024;-73
2021/01/26 13:03:43;;;;;;;9.00;3.00;;;;;;;2.90;67.17;99027.31;4922222;29;20035;-72
2021/01/26 13:06:10;;;;;;;5.70;3.50;;;;;;;2.80;66.48;99027.22;4903722;29;20031;-73
2021/01/26 13:08:35;;;;;;;7.63;3.03;;;;;;;2.87;67.28;99022.19;4906602;29;20121;-69
2021/01/26 13:11:00;;;;;;;9.43;3.33;;;;;;;2.73;68.12;99020.25;4903533;29;20032;-69
2021/01/26 13:13:27;;;;;;;7.90;3.35;;;;;;;2.98;66.29;99026.63;4908107;29;20481;-69
2021/01/26 13:15:53;;;;;;;5.82;3.08;;;;;;;3.06;67.01;99013.97;4921845;23;20052;-67
2021/01/26 13:18:18;;;;;;;4.10;2.45;;;;;;;3.11;66.68;99012.34;4907579;29;20040;-68
2021/01/26 13:20:43;;;;;;;10.02;3.00;;;;;;;3.13;65.59;99020.03;4907085;29;20024;-72
2021/01/26 13:23:10;;;;;;;5.55;2.65;;;;;;;3.04;65.75;99016.47;4906517;29;20032;-76
2021/01/26 13:25:35;;;;;;;9.60;2.50;;;;;;;3.14;65.74;99016.63;4902961;29;21124;-67
2021/01/26 13:28:02;;;;;;;5.28;2.85;;;;;;;2.93;65.98;99014.59;4905287;29;20119;-67
2021/01/26 13:30:28;;;;;;;13.68;2.85;;;;;;;3.13;64.66;99020.88;4903064;29;20029;-68
2021/01/26 13:32:54;;;;;;;6.25;2.40;;;;;;;3.27;65.24;99023.66;4907425;29;20036;-76
2021/01/26 13:35:25;;;;;;;4.43;2.60;;;;;;;3.28;65.29;99016.00;4905155;29;20036;-69
2021/01/26 13:37:50;;;;;;;7.15;3.58;;;;;;;3.03;67.47;99013.91;4905427;29;20128;-69
2021/01/26 13:40:17;;;;;;;9.07;4.18;;;;;;;2.99;66.35;99012.97;4905770;29;20028;-74
2021/01/26 13:42:42;;;;;;;6.65;2.92;;;;;;;2.95;66.36;99025.72;4906179;29;20502;-72
2021/01/26 13:45:08;;;;;;;7.60;2.78;;;;;;;2.81;67.11;99022.94;4902834;29;20043;-67
2021/01/26 13:47:34;;;;;;;11.40;3.20;;;;;;;2.86;66.77;99030.69;4907293;29;20122;-67
2021/01/26 13:50:00;;;;;;;8.93;3.28;;;;;;;2.61;67.79;99030.28;4901630;29;20036;-67
2021/01/26 13:52:26;;;;;;;14.38;4.18;;;;;;;2.70;67.10;99025.28;4907134;29;20143;-67
2021/01/26 13:54:51;;;;;;;9.05;3.40;;;;;;;2.84;67.61;99028.94;4906139;29;20095;-67
2021/01/26 13:57:16;;;;;;;6.60;4.00;;;;;;;2.94;66.90;99036.78;4902725;29;20067;-67
2021/01/26 13:59:41;;;;;;;8.88;4.07;;;;;;;2.92;66.79;99036.78;4904863;29;20036;-68
2021/01/26 14:02:07;;;;;;;14.57;5.93;;;;;;;2.99;68.27;99030.03;4911566;29;21002;-75
2021/01/26 14:04:32;;;;;;;9.80;4.18;;;;;;;2.81;67.65;99040.84;4910002;29;20042;-68
2021/01/26 14:06:57;;;;;;;11.25;5.03;;;;;;;2.94;67.29;99039.34;4913304;29;20039;-68
2021/01/26 14:09:23;;;;;;;6.88;4.32;;;;;;;2.84;67.03;99041.75;4912068;29;20119;-68
2021/01/26 14:11:51;;;;;;;9.65;3.15;;;;;;;2.83;67.55;99045.16;4910759;29;20039;-74
2021/01/26 14:14:17;;;;;;;11.88;3.95;;;;;;;2.87;69.64;99045.22;4911435;29;20122;-68
2021/01/26 14:16:42;;;;;;;15.85;5.03;;;;;;;2.71;69.70;99037.28;4913274;29;20040;-73
2021/01/26 14:19:07;;;;;;;12.10;3.95;;;;;;;2.79;68.65;99038.25;4912270;29;20043;-68
2021/01/26 14:21:33;;;;;;;8.57;3.45;;;;;;;2.61;67.61;99040.50;4909295;29;20070;-75
2021/01/26 14:23:58;;;;;;;9.50;3.15;;;;;;;2.66;67.27;99043.13;4909080;29;20035;-75
2021/01/26 14:26:24;;;;;;;7.68;3.08;;;;;;;2.65;67.13;99037.16;4921704;29;20468;-75
2021/01/26 14:28:49;;;;;;;10.00;3.63;;;;;;;2.63;69.24;99043.94;4912183;29;20079;-68
2021/01/26 14:31:15;;;;;;;8.20;3.33;;;;;;;2.68;67.98;99047.44;4908548;29;20032;-68
2021/01/26 14:33:41;;;;;;;7.03;2.60;;;;;;;2.63;67.55;99043.94;4909954;29;20063;-67
2021/01/26 14:36:07;;;;;;;5.82;2.70;;;;;;;2.60;65.74;99048.13;4916458;29;20120;-68
2021/01/26 14:38:32;;;;;;;8.25;2.70;;;;;;;2.57;66.83;99049.81;4913040;29;20036;-68
2021/01/26 14:40:57;;;;;;;7.20;2.72;;;;;;;2.56;66.21;99057.44;4908829;29;20238;-66
2021/01/26 14:43:24;;;;;;;7.78;3.55;;;;;;;2.60;66.45;99043.88;4913107;29;21135;-67
2021/01/26 14:45:50;;;;;;;10.98;3.25;;;;;;;2.61;67.75;99055.84;4924276;29;20024;-67
2021/01/26 14:48:15;;;;;;;9.00;3.22;;;;;;;2.54;67.33;99059.13;4910381;29;20028;-68
2021/01/26 14:50:41;;;;;;;6.05;2.75;;;;;;;2.56;68.05;99057.44;4909514;29;20035;-68
2021/01/26 14:53:07;;;;;;;8.38;3.25;;;;;;;2.39;68.39;99063.94;4912927;29;20031;-67
2021/01/26 14:55:33;;;;;;;6.07;2.72;;;;;;;2.31;68.22;99062.09;4912913;29;20433;-67
2021/01/26 14:57:58;;;;;;;9.95;3.17;;;;;;;2.40;68.16;99063.13;4911503;29;20024;-68
2021/01/26 15:00:26;;;;;;;9.50;3.40;;;;;;;2.42;70.02;99079.34;4908196;29;20062;-68
2021/01/26 15:02:51;;;;;;;3.58;2.50;;;;;;;2.40;69.38;99070.78;4912095;29;20405;-68
2021/01/26 15:05:17;;;;;;;7.68;3.75;;;;;;;2.50;68.81;99073.53;4910547;29;20044;-68
2021/01/26 15:07:42;;;;;;;8.07;2.85;;;;;;;2.31;69.87;99082.53;4912883;29;20456;-68
2021/01/26 15:10:11;;;;;;;6.13;3.25;;;;;;;2.41;69.92;99081.03;4921445;29;20478;-68
2021/01/26 15:12:37;;;;;;;4.97;2.53;;;;;;;2.37;70.59;99080.94;4907192;29;21045;-68
2021/01/26 15:15:04;;;;;;;23.88;10.35;;;;;;;2.23;70.59;99084.09;4907422;29;20484;-68
2021/01/26 15:17:29;;;;;;;18.25;9.07;;;;;;;2.28;70.23;99082.50;4924153;29;20481;-68
2021/01/26 15:19:55;;;;;;;14.82;7.00;;;;;;;2.10;71.35;99092.34;4907165;29;20041;-68
2021/01/26 15:22:20;;;;;;;6.88;3.63;;;;;;;2.25;71.29;99092.66;4903912;29;20036;-68
2021/01/26 15:24:45;;;;;;;7.80;3.15;;;;;;;2.12;72.05;99095.78;4906444;29;20136;-74
2021/01/26 15:27:11;;;;;;;8.63;2.75;;;;;;;1.97;72.71;99105.69;4909751;29;20039;-68
2021/01/26 15:29:37;;;;;;;7.75;3.40;;;;;;;2.11;70.85;99109.41;4913201;29;20055;-67
2021/01/26 15:32:03;;;;;;;6.07;3.33;;;;;;;2.11;70.56;99113.66;4909460;29;20024;-68
2021/01/26 15:34:28;;;;;;;8.43;3.42;;;;;;;2.12;70.02;99115.38;4906787;29;20035;-67
2021/01/26 15:36:54;;;;;;;8.05;2.75;;;;;;;2.17;69.86;99114.63;4908312;29;20036;-68
2021/01/26 15:39:19;;;;;;;4.70;2.00;;;;;;;2.08;69.93;99109.34;4907311;29;20676;-66
2021/01/26 15:41:45;;;;;;;4.88;2.10;;;;;;;2.11;70.29;99114.50;4907160;29;20032;-69
2021/01/26 15:44:11;;;;;;;8.93;2.10;;;;;;;2.01;69.07;99121.13;4903987;29;20421;-67
2021/01/26 15:46:36;;;;;;;4.25;2.50;;;;;;;1.95;69.21;99125.25;4907209;29;20032;-66
2021/01/26 15:49:04;;;;;;;7.88;3.53;;;;;;;2.00;68.94;99124.50;4904516;29;20112;-66
2021/01/26 15:51:31;;;;;;;6.05;3.30;;;;;;;1.97;68.89;99121.88;4908193;29;20054;-66
2021/01/26 15:53:56;;;;;;;4.80;2.53;;;;;;;1.99;68.99;99119.38;4917842;29;20083;-66
2021/01/26 15:56:23;;;;;;;5.22;2.50;;;;;;;2.05;68.83;99127.16;4906354;29;20031;-67
2021/01/26 15:58:48;;;;;;;5.38;2.05;;;;;;;1.98;68.12;99132.97;4908231;29;20032;-67
2021/01/26 16:01:14;;;;;;;10.07;2.13;;;;;;;2.02;69.08;99127.09;4907848;29;20068;-67
2021/01/26 16:03:39;;;;;;;6.95;2.70;;;;;;;1.92;68.54;99132.84;4904023;29;20036;-66
2021/01/26 16:06:09;;;;;;;6.93;2.28;;;;;;;1.96;68.06;99132.06;4902556;29;20453;-67
2021/01/26 16:08:36;;;;;;;3.90;2.17;;;;;;;1.92;68.38;99127.72;4904439;29;20043;-66
2021/01/26 16:11:02;;;;;;;4.65;2.80;;;;;;;1.87;67.39;99142.09;4904543;29;20075;-66
2021/01/26 16:13:27;;;;;;;4.60;2.33;;;;;;;1.89;68.36;99137.91;4905221;29;20036;-67
2021/01/26 16:15:52;;;;;;;4.32;2.45;;;;;;;1.92;68.42;99137.94;4907537;29;20099;-67
2021/01/26 16:18:18;;;;;;;5.60;2.80;;;;;;;1.92;69.37;99138.81;4908005;29;20036;-67
2021/01/26 16:20:43;;;;;;;8.15;3.00;;;;;;;1.85;69.48;99148.88;4908009;29;20039;-67
2021/01/26 16:23:08;;;;;;;2.90;2.45;;;;;;;1.82;69.94;99151.34;4908723;29;20051;-67
2021/01/26 16:25:34;;;;;;;5.25;3.15;;;;;;;1.82;68.70;99156.44;4903312;29;20047;-67
2021/01/26 16:27:59;;;;;;;9.80;4.07;;;;;;;1.83;70.79;99158.16;4905636;29;20427;-68
2021/01/26 16:30:25;;;;;;;18.08;9.95;;;;;;;1.89;69.94;99163.44;4903281;29;20027;-73
2021/01/26 16:32:50;;;;;;;9.00;3.92;;;;;;;1.88;69.18;99166.81;4903744;29;20478;-69
2021/01/26 16:35:17;;;;;;;7.00;3.67;;;;;;;1.86;69.11;99178.69;4908502;29;20036;-74
2021/01/26 16:37:45;;;;;;;3.90;2.88;;;;;;;1.82;69.09;99176.88;4908767;29;20046;-69
2021/01/26 16:40:15;;;;;;;8.80;3.63;;;;;;;1.90;69.68;99176.25;4908634;29;20032;-69
2021/01/26 16:42:42;;;;;;;6.68;3.00;;;;;;;1.92;69.24;99181.38;4902807;29;20036;-69
2021/01/26 16:45:08;;;;;;;5.80;2.97;;;;;;;1.98;69.94;99173.84;4905336;29;20143;-68
2021/01/26 16:47:37;;;;;;;17.67;7.88;;;;;;;1.92;69.70;99174.56;4908471;29;20032;-69
2021/01/26 16:50:03;;;;;;;9.32;3.30;;;;;;;1.90;70.05;99185.59;4905274;29;20028;-74
2021/01/26 16:52:29;;;;;;;6.90;3.80;;;;;;;1.91;69.97;99182.22;4905639;29;20504;-73
2021/01/26 16:54:54;;;;;;;8.13;4.15;;;;;;;1.89;69.42;99194.97;4904653;29;20028;-73
2021/01/26 16:57:19;;;;;;;3.65;2.70;;;;;;;1.87;69.08;99191.50;4905270;29;20032;-73
2021/01/26 16:59:45;;;;;;;8.85;3.47;;;;;;;1.88;70.44;99193.22;4903953;29;20041;-73
2021/01/26 17:02:11;;;;;;;5.13;3.35;;;;;;;1.89;70.74;99199.22;4905641;29;20052;-74
2021/01/26 17:04:36;;;;;;;5.20;2.97;;;;;;;1.92;71.25;99194.16;4904092;29;20103;-73
2021/01/26 17:07:01;;;;;;;7.38;2.90;;;;;;;1.89;71.47;99194.09;4906040;29;20079;-73
2021/01/26 17:09:27;;;;;;;3.83;2.63;;;;;;;1.88;71.47;99198.31;4906281;29;20028;-73
2021/01/26 17:11:52;;;;;;;6.80;3.80;;;;;;;1.97;73.24;99200.22;4903927;29;20405;-73
2021/01/26 17:14:17;;;;;;;5.40;3.88;;;;;;;1.78;72.66;99197.25;4904303;29;20047;-74
2021/01/26 17:16:43;;;;;;;13.63;2.90;;;;;;;1.89;71.87;99200.06;4902493;29;20048;-74
2021/01/26 17:19:12;;;;;;;3.63;2.50;;;;;;;1.88;72.04;99192.34;4902018;29;20061;-72
2021/01/26 17:21:37;;;;;;;7.53;3.10;;;;;;;1.97;71.48;99202.78;4905258;29;20028;-74
2021/01/26 17:24:03;;;;;;;7.63;3.30;;;;;;;1.86;72.47;99202.53;4906115;29;20028;-76
2021/01/26 17:26:28;;;;;;;9.90;4.10;;;;;;;1.80;72.06;99200.72;4902088;29;20034;-69
2021/01/26 17:28:54;;;;;;;5.88;3.08;;;;;;;1.84;72.28;99194.00;4901830;29;20036;-69
2021/01/26 17:31:19;;;;;;;6.80;4.22;;;;;;;1.84;72.87;99199.09;4901815;29;20036;-69
2021/01/26 17:33:44;;;;;;;8.98;5.72;;;;;;;1.80;72.55;99200.72;4922237;29;20046;-69
2021/01/26 17:36:10;;;;;;;5.57;4.30;;;;;;;1.83;72.63;99199.03;4901754;29;20034;-69
2021/01/26 17:38:35;;;;;;;10.45;4.18;;;;;;;1.86;72.82;99204.25;4901670;29;20110;-69
2021/01/26 17:41:00;;;;;;;8.98;4.07;;;;;;;1.85;74.15;99200.81;4903150;29;20450;-69
2021/01/26 17:43:26;;;;;;;5.13;3.40;;;;;;;1.97;73.62;99207.91;4907531;29;20123;-69
2021/01/26 17:45:54;;;;;;;6.50;3.45;;;;;;;1.97;72.50;99207.91;4903655;29;20513;-69